sensor_id;sensor_type;location;lat;lon;timestamp;P1;durP1;ratioP1;P2;durP2;ratioP2
58661;SDS011;44432;49.786;22.760;2022-11-15T00:01:00;15.80;;;9.40;;
58661;SDS011;44432;49.786;22.760;2022-11-15T00:03:30;14.70;;;9.80;;
58661;SDS011;44432;49.786;22.760;2022-11-15T00:06:02;14.50;;;8.90;;
58661;SDS011;44432;49.786;22.760;2022-11-15T00:08:33;15.70;;;9.60;;
58661;SDS011;44432;49.786;22.760;2022-11-15T00:11:04;15.90;;;8.60;;
58661;SDS011;44432;49.786;22.760;2022-11-15T00:13:35;12.40;;;7.50;;
58661;SDS011;44432;49.786;22.760;2022-11-15T00:16:06;13.20;;;8.00;;
58661;SDS011;44432;49.786;22.760;2022-11-15T00:18:38;11.50;;;7.60;;
58661;SDS011;44432;49.786;22.760;2022-11-15T00:21:10;15.20;;;8.20;;
58661;SDS011;44432;49.786;22.760;2022-11-15T00:23:41;11.10;;;7.00;;
58661;SDS011;44432;49.786;22.760;2022-11-15T00:26:13;13.70;;;7.70;;
58661;SDS011;44432;49.786;22.760;2022-11-15T00:28:44;13.50;;;7.60;;
58661;SDS011;44432;49.786;22.760;2022-11-15T00:31:15;12.90;;;8.30;;
58661;SDS011;44432;49.786;22.760;2022-11-15T00:33:45;12.40;;;7.40;;
58661;SDS011;44432;49.786;22.760;2022-11-15T00:40:59;14.40;;;8.00;;
58661;SDS011;44432;49.786;22.760;2022-11-15T00:43:31;12.50;;;7.90;;
58661;SDS011;44432;49.786;22.760;2022-11-15T00:46:02;18.10;;;8.30;;
58661;SDS011;44432;49.786;22.760;2022-11-15T00:48:33;15.00;;;9.10;;
58661;SDS011;44432;49.786;22.760;2022-11-15T00:51:04;17.70;;;9.60;;
58661;SDS011;44432;49.786;22.760;2022-11-15T00:53:35;14.50;;;9.10;;
58661;SDS011;44432;49.786;22.760;2022-11-15T00:56:06;15.00;;;8.30;;
58661;SDS011;44432;49.786;22.760;2022-11-15T00:58:36;17.60;;;8.90;;
58661;SDS011;44432;49.786;22.760;2022-11-15T01:01:08;11.90;;;8.20;;
58661;SDS011;44432;49.786;22.760;2022-11-15T01:03:40;10.60;;;6.70;;
58661;SDS011;44432;49.786;22.760;2022-11-15T01:06:11;12.00;;;7.00;;
58661;SDS011;44432;49.786;22.760;2022-11-15T01:08:42;13.50;;;7.80;;
58661;SDS011;44432;49.786;22.760;2022-11-15T01:11:13;19.90;;;9.60;;
58661;SDS011;44432;49.786;22.760;2022-11-15T01:13:44;20.50;;;10.50;;
58661;SDS011;44432;49.786;22.760;2022-11-15T01:16:16;18.10;;;8.80;;
58661;SDS011;44432;49.786;22.760;2022-11-15T01:18:47;15.30;;;8.10;;
58661;SDS011;44432;49.786;22.760;2022-11-15T01:21:19;26.50;;;11.90;;
58661;SDS011;44432;49.786;22.760;2022-11-15T01:23:50;26.30;;;13.40;;
58661;SDS011;44432;49.786;22.760;2022-11-15T01:26:24;16.50;;;8.60;;
58661;SDS011;44432;49.786;22.760;2022-11-15T01:28:55;17.80;;;9.90;;
58661;SDS011;44432;49.786;22.760;2022-11-15T01:31:26;11.20;;;6.30;;
58661;SDS011;44432;49.786;22.760;2022-11-15T01:33:57;10.60;;;7.30;;
58661;SDS011;44432;49.786;22.760;2022-11-15T01:36:28;14.20;;;7.40;;
58661;SDS011;44432;49.786;22.760;2022-11-15T01:38:58;10.00;;;6.60;;
58661;SDS011;44432;49.786;22.760;2022-11-15T01:41:30;9.60;;;6.20;;
58661;SDS011;44432;49.786;22.760;2022-11-15T01:47:15;10.60;;;6.50;;
58661;SDS011;44432;49.786;22.760;2022-11-15T01:49:51;12.30;;;7.20;;
58661;SDS011;44432;49.786;22.760;2022-11-15T01:52:27;9.20;;;6.60;;
58661;SDS011;44432;49.786;22.760;2022-11-15T01:55:02;12.00;;;6.60;;
58661;SDS011;44432;49.786;22.760;2022-11-15T01:57:36;10.40;;;6.30;;
58661;SDS011;44432;49.786;22.760;2022-11-15T02:00:11;7.50;;;5.50;;
58661;SDS011;44432;49.786;22.760;2022-11-15T02:02:43;9.60;;;6.00;;
58661;SDS011;44432;49.786;22.760;2022-11-15T02:05:14;9.90;;;5.60;;
58661;SDS011;44432;49.786;22.760;2022-11-15T02:07:45;8.80;;;5.70;;
58661;SDS011;44432;49.786;22.760;2022-11-15T02:10:18;7.60;;;5.20;;
58661;SDS011;44432;49.786;22.760;2022-11-15T02:12:51;12.50;;;5.80;;
58661;SDS011;44432;49.786;22.760;2022-11-15T02:15:24;11.30;;;6.10;;
58661;SDS011;44432;49.786;22.760;2022-11-15T02:18:06;9.10;;;6.20;;
58661;SDS011;44432;49.786;22.760;2022-11-15T02:20:54;10.70;;;6.10;;
58661;SDS011;44432;49.786;22.760;2022-11-15T02:30:23;9.90;;;6.00;;
58661;SDS011;44432;49.786;22.760;2022-11-15T02:33:00;10.30;;;6.60;;
58661;SDS011;44432;49.786;22.760;2022-11-15T02:35:41;13.60;;;6.10;;
58661;SDS011;44432;49.786;22.760;2022-11-15T02:38:25;14.60;;;7.00;;
58661;SDS011;44432;49.786;22.760;2022-11-15T02:41:04;19.80;;;9.00;;
58661;SDS011;44432;49.786;22.760;2022-11-15T02:43:40;20.30;;;8.40;;
58661;SDS011;44432;49.786;22.760;2022-11-15T02:46:26;16.00;;;8.20;;
58661;SDS011;44432;49.786;22.760;2022-11-15T02:49:19;24.50;;;8.80;;
58661;SDS011;44432;49.786;22.760;2022-11-15T02:51:50;18.30;;;8.80;;
58661;SDS011;44432;49.786;22.760;2022-11-15T02:54:24;13.90;;;8.70;;
58661;SDS011;44432;49.786;22.760;2022-11-15T02:56:58;15.30;;;7.90;;
58661;SDS011;44432;49.786;22.760;2022-11-15T02:59:45;13.10;;;8.50;;
58661;SDS011;44432;49.786;22.760;2022-11-15T03:02:39;24.90;;;7.10;;
58661;SDS011;44432;49.786;22.760;2022-11-15T03:05:19;20.10;;;6.00;;
58661;SDS011;44432;49.786;22.760;2022-11-15T03:08:05;13.40;;;5.50;;
58661;SDS011;44432;49.786;22.760;2022-11-15T03:10:42;9.10;;;5.30;;
58661;SDS011;44432;49.786;22.760;2022-11-15T03:13:26;7.70;;;5.10;;
58661;SDS011;44432;49.786;22.760;2022-11-15T03:16:06;19.10;;;7.60;;
58661;SDS011;44432;49.786;22.760;2022-11-15T03:18:40;18.40;;;6.00;;
58661;SDS011;44432;49.786;22.760;2022-11-15T03:21:14;10.90;;;5.10;;
58661;SDS011;44432;49.786;22.760;2022-11-15T03:23:48;12.00;;;5.30;;
58661;SDS011;44432;49.786;22.760;2022-11-15T03:26:21;9.40;;;4.90;;
58661;SDS011;44432;49.786;22.760;2022-11-15T03:28:55;7.60;;;4.50;;
58661;SDS011;44432;49.786;22.760;2022-11-15T03:31:31;6.50;;;4.30;;
58661;SDS011;44432;49.786;22.760;2022-11-15T03:34:20;18.10;;;5.30;;
58661;SDS011;44432;49.786;22.760;2022-11-15T03:36:56;15.40;;;4.50;;
58661;SDS011;44432;49.786;22.760;2022-11-15T03:39:27;10.80;;;5.30;;
58661;SDS011;44432;49.786;22.760;2022-11-15T03:42:02;7.70;;;5.10;;
58661;SDS011;44432;49.786;22.760;2022-11-15T03:44:42;8.10;;;4.70;;
58661;SDS011;44432;49.786;22.760;2022-11-15T03:47:21;7.30;;;4.10;;
58661;SDS011;44432;49.786;22.760;2022-11-15T03:49:57;11.20;;;3.90;;
58661;SDS011;44432;49.786;22.760;2022-11-15T03:52:32;9.20;;;4.50;;
58661;SDS011;44432;49.786;22.760;2022-11-15T03:55:06;10.90;;;4.20;;
58661;SDS011;44432;49.786;22.760;2022-11-15T03:57:40;5.90;;;3.80;;
58661;SDS011;44432;49.786;22.760;2022-11-15T04:00:12;6.30;;;4.20;;
58661;SDS011;44432;49.786;22.760;2022-11-15T04:02:43;5.80;;;3.60;;
58661;SDS011;44432;49.786;22.760;2022-11-15T04:05:14;8.50;;;4.60;;
58661;SDS011;44432;49.786;22.760;2022-11-15T04:07:45;8.00;;;3.90;;
58661;SDS011;44432;49.786;22.760;2022-11-15T04:10:16;18.10;;;4.70;;
58661;SDS011;44432;49.786;22.760;2022-11-15T04:12:47;21.60;;;5.00;;
58661;SDS011;44432;49.786;22.760;2022-11-15T04:15:18;12.20;;;5.70;;
58661;SDS011;44432;49.786;22.760;2022-11-15T04:17:51;10.40;;;5.40;;
58661;SDS011;44432;49.786;22.760;2022-11-15T04:20:24;11.10;;;4.70;;
58661;SDS011;44432;49.786;22.760;2022-11-15T04:23:28;10.90;;;4.80;;
58661;SDS011;44432;49.786;22.760;2022-11-15T04:26:28;8.10;;;4.30;;
58661;SDS011;44432;49.786;22.760;2022-11-15T04:28:59;9.00;;;4.60;;
58661;SDS011;44432;49.786;22.760;2022-11-15T04:32:02;6.80;;;4.30;;
58661;SDS011;44432;49.786;22.760;2022-11-15T04:34:34;7.40;;;5.10;;
58661;SDS011;44432;49.786;22.760;2022-11-15T04:37:06;7.80;;;4.50;;
58661;SDS011;44432;49.786;22.760;2022-11-15T04:39:43;9.80;;;4.70;;
58661;SDS011;44432;49.786;22.760;2022-11-15T04:42:14;9.30;;;4.70;;
58661;SDS011;44432;49.786;22.760;2022-11-15T04:44:44;11.60;;;5.00;;
58661;SDS011;44432;49.786;22.760;2022-11-15T04:47:15;8.20;;;4.40;;
58661;SDS011;44432;49.786;22.760;2022-11-15T04:49:46;9.10;;;4.50;;
58661;SDS011;44432;49.786;22.760;2022-11-15T04:52:17;7.40;;;4.30;;
58661;SDS011;44432;49.786;22.760;2022-11-15T04:54:47;14.20;;;4.00;;
58661;SDS011;44432;49.786;22.760;2022-11-15T04:57:18;7.00;;;3.60;;
58661;SDS011;44432;49.786;22.760;2022-11-15T04:59:48;4.60;;;2.90;;
58661;SDS011;44432;49.786;22.760;2022-11-15T05:02:19;10.70;;;3.10;;
58661;SDS011;44432;49.786;22.760;2022-11-15T05:04:50;12.10;;;3.00;;
58661;SDS011;44432;49.786;22.760;2022-11-15T05:07:20;9.30;;;3.40;;
58661;SDS011;44432;49.786;22.760;2022-11-15T05:09:51;4.70;;;3.10;;
58661;SDS011;44432;49.786;22.760;2022-11-15T05:12:21;6.40;;;3.50;;
58661;SDS011;44432;49.786;22.760;2022-11-15T05:14:52;5.40;;;2.80;;
58661;SDS011;44432;49.786;22.760;2022-11-15T05:17:22;4.40;;;2.80;;
58661;SDS011;44432;49.786;22.760;2022-11-15T05:19:53;4.50;;;2.70;;
58661;SDS011;44432;49.786;22.760;2022-11-15T05:22:24;5.50;;;3.10;;
58661;SDS011;44432;49.786;22.760;2022-11-15T05:24:54;4.50;;;3.00;;
58661;SDS011;44432;49.786;22.760;2022-11-15T05:27:25;4.30;;;2.80;;
58661;SDS011;44432;49.786;22.760;2022-11-15T05:29:55;7.20;;;3.00;;
58661;SDS011;44432;49.786;22.760;2022-11-15T05:32:26;5.50;;;3.20;;
58661;SDS011;44432;49.786;22.760;2022-11-15T05:34:58;4.70;;;3.20;;
58661;SDS011;44432;49.786;22.760;2022-11-15T05:37:29;7.00;;;3.70;;
58661;SDS011;44432;49.786;22.760;2022-11-15T05:40:00;5.90;;;3.00;;
58661;SDS011;44432;49.786;22.760;2022-11-15T05:46:19;7.80;;;3.30;;
58661;SDS011;44432;49.786;22.760;2022-11-15T05:48:50;4.20;;;2.60;;
58661;SDS011;44432;49.786;22.760;2022-11-15T05:51:22;6.30;;;4.40;;
58661;SDS011;44432;49.786;22.760;2022-11-15T05:56:25;6.10;;;3.20;;
58661;SDS011;44432;49.786;22.760;2022-11-15T05:58:57;9.90;;;2.70;;
58661;SDS011;44432;49.786;22.760;2022-11-15T06:01:29;4.50;;;2.50;;
58661;SDS011;44432;49.786;22.760;2022-11-15T06:04:00;4.70;;;2.70;;
58661;SDS011;44432;49.786;22.760;2022-11-15T06:06:30;6.50;;;3.10;;
58661;SDS011;44432;49.786;22.760;2022-11-15T06:09:01;5.20;;;3.10;;
58661;SDS011;44432;49.786;22.760;2022-11-15T06:11:32;11.70;;;3.70;;
58661;SDS011;44432;49.786;22.760;2022-11-15T06:14:03;10.60;;;5.70;;
58661;SDS011;44432;49.786;22.760;2022-11-15T06:16:34;8.30;;;4.70;;
58661;SDS011;44432;49.786;22.760;2022-11-15T06:19:05;8.00;;;4.10;;
58661;SDS011;44432;49.786;22.760;2022-11-15T06:21:35;6.30;;;3.20;;
58661;SDS011;44432;49.786;22.760;2022-11-15T06:24:06;7.70;;;5.20;;
58661;SDS011;44432;49.786;22.760;2022-11-15T06:26:37;6.20;;;3.10;;
58661;SDS011;44432;49.786;22.760;2022-11-15T06:29:10;7.30;;;3.90;;
58661;SDS011;44432;49.786;22.760;2022-11-15T06:31:41;7.50;;;4.40;;
58661;SDS011;44432;49.786;22.760;2022-11-15T06:34:11;9.60;;;5.60;;
58661;SDS011;44432;49.786;22.760;2022-11-15T06:36:42;10.70;;;5.70;;
58661;SDS011;44432;49.786;22.760;2022-11-15T06:39:13;6.30;;;3.60;;
58661;SDS011;44432;49.786;22.760;2022-11-15T06:41:43;9.00;;;5.40;;
58661;SDS011;44432;49.786;22.760;2022-11-15T06:44:14;11.80;;;6.80;;
58661;SDS011;44432;49.786;22.760;2022-11-15T06:46:44;16.90;;;10.50;;
58661;SDS011;44432;49.786;22.760;2022-11-15T06:49:15;18.60;;;10.00;;
58661;SDS011;44432;49.786;22.760;2022-11-15T06:51:49;28.10;;;19.10;;
58661;SDS011;44432;49.786;22.760;2022-11-15T06:54:19;13.80;;;8.50;;
58661;SDS011;44432;49.786;22.760;2022-11-15T06:56:50;9.50;;;5.20;;
58661;SDS011;44432;49.786;22.760;2022-11-15T06:59:20;7.10;;;4.00;;
58661;SDS011;44432;49.786;22.760;2022-11-15T07:01:51;6.10;;;4.20;;
58661;SDS011;44432;49.786;22.760;2022-11-15T07:04:22;10.10;;;4.10;;
58661;SDS011;44432;49.786;22.760;2022-11-15T07:06:52;5.30;;;3.40;;
58661;SDS011;44432;49.786;22.760;2022-11-15T07:09:23;5.30;;;3.50;;
58661;SDS011;44432;49.786;22.760;2022-11-15T07:11:54;7.90;;;3.70;;
58661;SDS011;44432;49.786;22.760;2022-11-15T07:14:25;7.70;;;4.60;;
58661;SDS011;44432;49.786;22.760;2022-11-15T07:16:55;10.00;;;6.10;;
58661;SDS011;44432;49.786;22.760;2022-11-15T07:19:26;6.00;;;3.20;;
58661;SDS011;44432;49.786;22.760;2022-11-15T07:21:56;6.70;;;3.40;;
58661;SDS011;44432;49.786;22.760;2022-11-15T07:24:27;9.30;;;3.90;;
58661;SDS011;44432;49.786;22.760;2022-11-15T07:26:58;5.20;;;3.20;;
58661;SDS011;44432;49.786;22.760;2022-11-15T07:29:28;7.00;;;4.50;;
58661;SDS011;44432;49.786;22.760;2022-11-15T07:31:59;9.00;;;4.50;;
58661;SDS011;44432;49.786;22.760;2022-11-15T07:34:30;8.60;;;5.10;;
58661;SDS011;44432;49.786;22.760;2022-11-15T07:37:00;9.40;;;5.10;;
58661;SDS011;44432;49.786;22.760;2022-11-15T07:39:31;7.80;;;4.30;;
58661;SDS011;44432;49.786;22.760;2022-11-15T07:42:02;7.90;;;4.50;;
58661;SDS011;44432;49.786;22.760;2022-11-15T07:44:50;11.90;;;4.60;;
58661;SDS011;44432;49.786;22.760;2022-11-15T07:47:21;10.50;;;5.10;;
58661;SDS011;44432;49.786;22.760;2022-11-15T07:49:52;7.60;;;4.90;;
58661;SDS011;44432;49.786;22.760;2022-11-15T07:52:22;7.80;;;5.30;;
58661;SDS011;44432;49.786;22.760;2022-11-15T07:54:53;13.20;;;8.50;;
58661;SDS011;44432;49.786;22.760;2022-11-15T07:57:23;9.90;;;6.30;;
58661;SDS011;44432;49.786;22.760;2022-11-15T07:59:54;12.90;;;7.40;;
58661;SDS011;44432;49.786;22.760;2022-11-15T08:02:25;15.50;;;8.80;;
58661;SDS011;44432;49.786;22.760;2022-11-15T08:04:55;10.80;;;8.60;;
58661;SDS011;44432;49.786;22.760;2022-11-15T08:07:29;17.90;;;9.70;;
58661;SDS011;44432;49.786;22.760;2022-11-15T08:10:00;14.70;;;10.00;;
58661;SDS011;44432;49.786;22.760;2022-11-15T08:12:31;17.10;;;12.30;;
58661;SDS011;44432;49.786;22.760;2022-11-15T08:15:02;14.90;;;11.10;;
58661;SDS011;44432;49.786;22.760;2022-11-15T08:17:33;15.40;;;10.90;;
58661;SDS011;44432;49.786;22.760;2022-11-15T08:20:05;22.10;;;14.50;;
58661;SDS011;44432;49.786;22.760;2022-11-15T08:22:37;19.10;;;12.40;;
58661;SDS011;44432;49.786;22.760;2022-11-15T08:25:08;26.10;;;15.30;;
58661;SDS011;44432;49.786;22.760;2022-11-15T08:27:38;18.30;;;12.50;;
58661;SDS011;44432;49.786;22.760;2022-11-15T08:30:10;17.60;;;12.20;;
58661;SDS011;44432;49.786;22.760;2022-11-15T08:32:43;15.70;;;11.50;;
58661;SDS011;44432;49.786;22.760;2022-11-15T08:35:14;16.10;;;11.10;;
58661;SDS011;44432;49.786;22.760;2022-11-15T08:37:45;16.10;;;11.80;;
58661;SDS011;44432;49.786;22.760;2022-11-15T08:40:16;16.90;;;12.30;;
58661;SDS011;44432;49.786;22.760;2022-11-15T08:42:47;19.20;;;12.90;;
58661;SDS011;44432;49.786;22.760;2022-11-15T08:45:18;18.30;;;12.40;;
58661;SDS011;44432;49.786;22.760;2022-11-15T08:47:49;19.10;;;13.10;;
58661;SDS011;44432;49.786;22.760;2022-11-15T08:50:19;19.70;;;13.70;;
58661;SDS011;44432;49.786;22.760;2022-11-15T08:52:50;21.30;;;14.00;;
58661;SDS011;44432;49.786;22.760;2022-11-15T08:55:21;26.10;;;15.40;;
58661;SDS011;44432;49.786;22.760;2022-11-15T08:57:52;24.50;;;16.00;;
58661;SDS011;44432;49.786;22.760;2022-11-15T09:00:25;20.10;;;15.00;;
58661;SDS011;44432;49.786;22.760;2022-11-15T09:02:56;22.40;;;16.30;;
58661;SDS011;44432;49.786;22.760;2022-11-15T09:05:26;23.90;;;17.00;;
58661;SDS011;44432;49.786;22.760;2022-11-15T09:07:57;27.70;;;19.60;;
58661;SDS011;44432;49.786;22.760;2022-11-15T09:10:28;18.70;;;14.60;;
58661;SDS011;44432;49.786;22.760;2022-11-15T09:12:58;20.80;;;14.10;;
58661;SDS011;44432;49.786;22.760;2022-11-15T09:15:29;21.10;;;15.30;;
58661;SDS011;44432;49.786;22.760;2022-11-15T09:18:00;24.80;;;16.90;;
58661;SDS011;44432;49.786;22.760;2022-11-15T09:20:30;28.50;;;15.90;;
58661;SDS011;44432;49.786;22.760;2022-11-15T09:23:01;21.40;;;15.20;;
58661;SDS011;44432;49.786;22.760;2022-11-15T09:25:33;23.00;;;15.80;;
58661;SDS011;44432;49.786;22.760;2022-11-15T09:28:07;20.80;;;13.60;;
58661;SDS011;44432;49.786;22.760;2022-11-15T09:30:38;20.40;;;14.10;;
58661;SDS011;44432;49.786;22.760;2022-11-15T09:33:09;17.80;;;12.60;;
58661;SDS011;44432;49.786;22.760;2022-11-15T09:35:40;21.00;;;13.90;;
58661;SDS011;44432;49.786;22.760;2022-11-15T09:38:11;19.70;;;13.50;;
58661;SDS011;44432;49.786;22.760;2022-11-15T09:40:42;20.70;;;12.90;;
58661;SDS011;44432;49.786;22.760;2022-11-15T09:43:25;17.60;;;12.70;;
58661;SDS011;44432;49.786;22.760;2022-11-15T09:46:04;20.60;;;11.80;;
58661;SDS011;44432;49.786;22.760;2022-11-15T09:48:50;17.50;;;11.40;;
58661;SDS011;44432;49.786;22.760;2022-11-15T09:51:25;14.40;;;11.40;;
58661;SDS011;44432;49.786;22.760;2022-11-15T09:54:05;15.60;;;12.30;;
58661;SDS011;44432;49.786;22.760;2022-11-15T09:56:42;16.10;;;11.90;;
58661;SDS011;44432;49.786;22.760;2022-11-15T10:02:11;21.40;;;12.90;;
58661;SDS011;44432;49.786;22.760;2022-11-15T10:04:52;21.40;;;13.30;;
58661;SDS011;44432;49.786;22.760;2022-11-15T10:07:26;22.20;;;15.40;;
58661;SDS011;44432;49.786;22.760;2022-11-15T10:10:04;20.20;;;15.60;;
58661;SDS011;44432;49.786;22.760;2022-11-15T10:12:48;21.30;;;15.30;;
58661;SDS011;44432;49.786;22.760;2022-11-15T10:15:21;24.70;;;18.30;;
58661;SDS011;44432;49.786;22.760;2022-11-15T10:17:58;31.80;;;23.10;;
58661;SDS011;44432;49.786;22.760;2022-11-15T10:20:41;26.60;;;18.00;;
58661;SDS011;44432;49.786;22.760;2022-11-15T10:23:16;22.00;;;17.90;;
58661;SDS011;44432;49.786;22.760;2022-11-15T10:25:49;21.40;;;16.60;;
58661;SDS011;44432;49.786;22.760;2022-11-15T10:28:23;20.40;;;16.20;;
58661;SDS011;44432;49.786;22.760;2022-11-15T10:30:57;24.20;;;16.20;;
58661;SDS011;44432;49.786;22.760;2022-11-15T10:33:31;23.40;;;16.10;;
58661;SDS011;44432;49.786;22.760;2022-11-15T10:38:53;33.70;;;25.80;;
58661;SDS011;44432;49.786;22.760;2022-11-15T10:41:36;29.10;;;22.20;;
58661;SDS011;44432;49.786;22.760;2022-11-15T10:50:04;32.90;;;23.80;;
58661;SDS011;44432;49.786;22.760;2022-11-15T10:52:56;38.70;;;28.40;;
58661;SDS011;44432;49.786;22.760;2022-11-15T10:55:30;65.90;;;46.00;;
58661;SDS011;44432;49.786;22.760;2022-11-15T10:58:03;51.70;;;36.10;;
58661;SDS011;44432;49.786;22.760;2022-11-15T11:00:48;45.40;;;31.00;;
58661;SDS011;44432;49.786;22.760;2022-11-15T11:03:27;45.90;;;31.40;;
58661;SDS011;44432;49.786;22.760;2022-11-15T11:06:06;45.30;;;32.30;;
58661;SDS011;44432;49.786;22.760;2022-11-15T11:08:39;52.00;;;34.90;;
58661;SDS011;44432;49.786;22.760;2022-11-15T11:11:21;58.50;;;39.00;;
58661;SDS011;44432;49.786;22.760;2022-11-15T11:13:52;72.70;;;47.30;;
58661;SDS011;44432;49.786;22.760;2022-11-15T11:16:26;55.00;;;34.60;;
58661;SDS011;44432;49.786;22.760;2022-11-15T11:19:14;80.00;;;47.50;;
58661;SDS011;44432;49.786;22.760;2022-11-15T11:21:58;80.00;;;48.40;;
58661;SDS011;44432;49.786;22.760;2022-11-15T11:24:36;73.70;;;41.30;;
58661;SDS011;44432;49.786;22.760;2022-11-15T11:27:16;61.60;;;37.90;;
58661;SDS011;44432;49.786;22.760;2022-11-15T11:30:02;59.20;;;40.50;;
58661;SDS011;44432;49.786;22.760;2022-11-15T11:32:48;60.40;;;37.20;;
58661;SDS011;44432;49.786;22.760;2022-11-15T11:35:29;52.40;;;33.30;;
58661;SDS011;44432;49.786;22.760;2022-11-15T11:38:08;47.10;;;31.50;;
58661;SDS011;44432;49.786;22.760;2022-11-15T11:41:00;51.40;;;33.60;;
58661;SDS011;44432;49.786;22.760;2022-11-15T11:43:39;43.80;;;31.30;;
58661;SDS011;44432;49.786;22.760;2022-11-15T11:46:26;43.80;;;31.40;;
58661;SDS011;44432;49.786;22.760;2022-11-15T11:49:09;38.00;;;27.80;;
58661;SDS011;44432;49.786;22.760;2022-11-15T11:51:46;50.90;;;36.10;;
58661;SDS011;44432;49.786;22.760;2022-11-15T11:54:22;46.10;;;32.70;;
58661;SDS011;44432;49.786;22.760;2022-11-15T11:57:01;58.00;;;39.10;;
58661;SDS011;44432;49.786;22.760;2022-11-15T11:59:36;49.00;;;32.60;;
58661;SDS011;44432;49.786;22.760;2022-11-15T12:02:12;39.40;;;28.70;;
58661;SDS011;44432;49.786;22.760;2022-11-15T12:04:48;41.20;;;27.40;;
58661;SDS011;44432;49.786;22.760;2022-11-15T12:07:23;39.60;;;27.30;;
58661;SDS011;44432;49.786;22.760;2022-11-15T12:09:59;41.30;;;25.80;;
58661;SDS011;44432;49.786;22.760;2022-11-15T12:12:41;37.70;;;26.00;;
58661;SDS011;44432;49.786;22.760;2022-11-15T12:15:18;37.00;;;26.00;;
58661;SDS011;44432;49.786;22.760;2022-11-15T12:17:52;32.70;;;23.60;;
58661;SDS011;44432;49.786;22.760;2022-11-15T12:20:27;31.10;;;21.90;;
58661;SDS011;44432;49.786;22.760;2022-11-15T12:23:05;33.30;;;22.40;;
58661;SDS011;44432;49.786;22.760;2022-11-15T12:25:43;32.10;;;21.50;;
58661;SDS011;44432;49.786;22.760;2022-11-15T12:28:19;26.80;;;19.90;;
58661;SDS011;44432;49.786;22.760;2022-11-15T12:31:01;29.60;;;20.90;;
58661;SDS011;44432;49.786;22.760;2022-11-15T12:33:40;27.40;;;19.30;;
58661;SDS011;44432;49.786;22.760;2022-11-15T12:39:03;29.40;;;20.60;;
58661;SDS011;44432;49.786;22.760;2022-11-15T12:41:37;33.50;;;22.10;;
58661;SDS011;44432;49.786;22.760;2022-11-15T12:44:11;34.00;;;21.50;;
58661;SDS011;44432;49.786;22.760;2022-11-15T12:47:04;29.50;;;22.30;;
58661;SDS011;44432;49.786;22.760;2022-11-15T12:49:51;34.20;;;21.60;;
58661;SDS011;44432;49.786;22.760;2022-11-15T12:52:22;37.60;;;23.90;;
58661;SDS011;44432;49.786;22.760;2022-11-15T12:57:55;31.10;;;21.20;;
58661;SDS011;44432;49.786;22.760;2022-11-15T13:01:09;28.70;;;21.00;;
58661;SDS011;44432;49.786;22.760;2022-11-15T13:04:13;30.00;;;20.50;;
58661;SDS011;44432;49.786;22.760;2022-11-15T13:06:54;26.80;;;19.20;;
58661;SDS011;44432;49.786;22.760;2022-11-15T13:21:22;36.40;;;22.50;;
58661;SDS011;44432;49.786;22.760;2022-11-15T13:24:12;31.60;;;20.40;;
58661;SDS011;44432;49.786;22.760;2022-11-15T13:26:45;31.30;;;21.00;;
58661;SDS011;44432;49.786;22.760;2022-11-15T13:29:16;30.40;;;20.10;;
58661;SDS011;44432;49.786;22.760;2022-11-15T13:31:48;30.10;;;21.20;;
58661;SDS011;44432;49.786;22.760;2022-11-15T13:34:24;29.30;;;19.60;;
58661;SDS011;44432;49.786;22.760;2022-11-15T13:36:58;32.40;;;19.60;;
58661;SDS011;44432;49.786;22.760;2022-11-15T13:39:30;28.50;;;19.00;;
58661;SDS011;44432;49.786;22.760;2022-11-15T13:42:04;28.50;;;19.10;;
58661;SDS011;44432;49.786;22.760;2022-11-15T13:44:54;30.10;;;20.80;;
58661;SDS011;44432;49.786;22.760;2022-11-15T13:47:26;34.20;;;20.70;;
58661;SDS011;44432;49.786;22.760;2022-11-15T13:49:59;32.10;;;20.60;;
58661;SDS011;44432;49.786;22.760;2022-11-15T13:52:32;30.70;;;21.30;;
58661;SDS011;44432;49.786;22.760;2022-11-15T13:55:10;35.90;;;21.10;;
58661;SDS011;44432;49.786;22.760;2022-11-15T13:57:44;35.30;;;22.90;;
58661;SDS011;44432;49.786;22.760;2022-11-15T14:02:55;39.80;;;27.00;;
58661;SDS011;44432;49.786;22.760;2022-11-15T14:05:33;123.70;;;66.20;;
58661;SDS011;44432;49.786;22.760;2022-11-15T14:08:13;74.70;;;42.70;;
58661;SDS011;44432;49.786;22.760;2022-11-15T14:13:39;35.10;;;21.70;;
58661;SDS011;44432;49.786;22.760;2022-11-15T14:16:15;60.30;;;30.30;;
58661;SDS011;44432;49.786;22.760;2022-11-15T14:18:47;174.80;;;96.60;;
58661;SDS011;44432;49.786;22.760;2022-11-15T14:21:19;75.40;;;44.60;;
58661;SDS011;44432;49.786;22.760;2022-11-15T14:23:49;54.40;;;34.80;;
58661;SDS011;44432;49.786;22.760;2022-11-15T14:26:27;117.50;;;63.50;;
58661;SDS011;44432;49.786;22.760;2022-11-15T14:32:05;54.80;;;31.20;;
58661;SDS011;44432;49.786;22.760;2022-11-15T14:34:43;52.20;;;31.60;;
58661;SDS011;44432;49.786;22.760;2022-11-15T14:37:18;50.40;;;30.00;;
58661;SDS011;44432;49.786;22.760;2022-11-15T14:39:51;62.70;;;28.50;;
58661;SDS011;44432;49.786;22.760;2022-11-15T14:42:22;42.80;;;28.40;;
58661;SDS011;44432;49.786;22.760;2022-11-15T14:44:53;47.80;;;28.60;;
58661;SDS011;44432;49.786;22.760;2022-11-15T14:47:24;54.80;;;32.80;;
58661;SDS011;44432;49.786;22.760;2022-11-15T14:49:55;50.90;;;32.40;;
58661;SDS011;44432;49.786;22.760;2022-11-15T14:52:27;51.70;;;31.30;;
58661;SDS011;44432;49.786;22.760;2022-11-15T14:55:03;46.30;;;30.70;;
58661;SDS011;44432;49.786;22.760;2022-11-15T14:57:40;51.80;;;38.10;;
58661;SDS011;44432;49.786;22.760;2022-11-15T15:00:11;51.60;;;34.70;;
58661;SDS011;44432;49.786;22.760;2022-11-15T15:02:43;52.10;;;35.80;;
58661;SDS011;44432;49.786;22.760;2022-11-15T15:05:16;54.90;;;37.60;;
58661;SDS011;44432;49.786;22.760;2022-11-15T15:07:49;60.00;;;38.10;;
58661;SDS011;44432;49.786;22.760;2022-11-15T15:10:20;57.20;;;39.70;;
58661;SDS011;44432;49.786;22.760;2022-11-15T15:12:51;52.40;;;35.60;;
58661;SDS011;44432;49.786;22.760;2022-11-15T15:15:23;60.60;;;40.80;;
58661;SDS011;44432;49.786;22.760;2022-11-15T15:17:58;51.80;;;35.40;;
58661;SDS011;44432;49.786;22.760;2022-11-15T15:20:29;52.50;;;34.30;;
58661;SDS011;44432;49.786;22.760;2022-11-15T15:23:00;52.20;;;34.70;;
58661;SDS011;44432;49.786;22.760;2022-11-15T15:25:31;62.70;;;44.50;;
58661;SDS011;44432;49.786;22.760;2022-11-15T15:28:03;63.00;;;44.60;;
58661;SDS011;44432;49.786;22.760;2022-11-15T15:30:34;64.50;;;46.50;;
58661;SDS011;44432;49.786;22.760;2022-11-15T15:33:04;67.30;;;44.50;;
58661;SDS011;44432;49.786;22.760;2022-11-15T15:35:35;64.70;;;42.70;;
58661;SDS011;44432;49.786;22.760;2022-11-15T15:38:06;74.40;;;49.20;;
58661;SDS011;44432;49.786;22.760;2022-11-15T15:40:37;68.80;;;43.70;;
58661;SDS011;44432;49.786;22.760;2022-11-15T15:43:08;72.60;;;45.20;;
58661;SDS011;44432;49.786;22.760;2022-11-15T15:45:39;76.30;;;49.20;;
58661;SDS011;44432;49.786;22.760;2022-11-15T15:48:13;80.10;;;53.20;;
58661;SDS011;44432;49.786;22.760;2022-11-15T15:53:47;74.00;;;47.40;;
58661;SDS011;44432;49.786;22.760;2022-11-15T15:56:20;75.70;;;47.60;;
58661;SDS011;44432;49.786;22.760;2022-11-15T15:58:51;75.20;;;47.90;;
58661;SDS011;44432;49.786;22.760;2022-11-15T16:01:23;73.30;;;47.90;;